Time;durP1;ratioP1;P1;durP2;ratioP2;P2;SDS_P1;SDS_P2;PMS_P1;PMS_P2;Temp;Humidity;BMP_temperature;BMP_pressure;BME280_temperature;BME280_humidity;BME280_pressure;Samples;Min_cycle;Max_cycle;Signal;HPM_P1;HPM_P2
2022/12/18 05:41:59;;;;;;;10.43;6.75;;;1.10;99.90;;;;;;1944125;73;22271;-92
2022/12/18 06:01:29;;;;;;;10.15;7.12;;;1.20;99.90;;;;;;1937995;72;22154;-90
2022/12/18 06:04:21;;;;;;;9.65;6.90;;;1.20;99.90;;;;;;1891199;75;21118;-91
2022/12/18 06:26:11;;;;;;;10.13;6.65;;;1.00;99.90;;;;;;1947410;72;22230;-91
2022/12/18 06:29:03;;;;;;;11.95;7.95;;;1.00;99.90;;;;;;1899224;75;21127;-91
2022/12/18 06:31:55;;;;;;;12.90;8.63;;;0.90;99.90;;;;;;1898193;75;21121;-91
2022/12/18 06:37:34;;;;;;;11.70;8.48;;;0.90;99.90;;;;;;1952134;72;22151;-91
2022/12/18 06:40:26;;;;;;;12.82;8.75;;;0.90;99.90;;;;;;1923723;73;21109;-91
2022/12/18 06:43:18;;;;;;;12.13;8.58;;;0.90;99.90;;;;;;1917728;75;21160;-90
2022/12/18 06:46:10;;;;;;;12.88;8.20;;;0.90;99.90;;;;;;1917115;73;21212;-91
2022/12/18 06:49:03;;;;;;;12.85;8.58;;;0.90;99.90;;;;;;1929556;73;21101;-90
2022/12/18 06:51:55;;;;;;;12.82;8.68;;;0.90;99.90;;;;;;1933100;73;21138;-91
2022/12/18 06:54:47;;;;;;;13.10;9.70;;;1.00;99.90;;;;;;1916990;75;21142;-90
2022/12/18 06:57:39;;;;;;;13.32;9.15;;;0.90;99.90;;;;;;1933599;73;21119;-91
2022/12/18 07:00:31;;;;;;;14.07;9.48;;;0.90;99.90;;;;;;1927591;73;21058;-91
2022/12/18 07:03:22;;;;;;;16.17;10.32;;;0.90;99.90;;;;;;1918477;73;21075;-90
2022/12/18 07:06:18;;;;;;;13.75;9.80;;;1.00;99.90;;;;;;1921301;73;21044;-90
2022/12/18 07:09:10;;;;;;;13.20;9.65;;;0.90;99.90;;;;;;1921071;73;21093;-91
2022/12/18 07:12:02;;;;;;;15.53;10.35;;;1.00;99.90;;;;;;1921053;73;21662;-91
2022/12/18 07:17:33;;;;;;;16.70;10.43;;;1.00;99.90;;;;;;1923526;72;22303;-92
2022/12/18 07:20:25;;;;;;;13.08;9.18;;;1.00;99.90;;;;;;1906522;75;21183;-92
2022/12/18 07:23:17;;;;;;;13.60;9.50;;;1.00;99.90;;;;;;1907463;75;21078;-90
2022/12/18 07:28:54;;;;;;;13.50;9.08;;;0.90;99.90;;;;;;1941301;72;22151;-91
2022/12/18 07:31:46;;;;;;;14.47;10.23;;;0.90;99.90;;;;;;1909407;75;21088;-91
2022/12/18 07:40:27;;;;;;;13.05;9.25;;;0.90;99.90;;;;;;1932664;72;22331;-91
2022/12/18 08:00:39;;;;;;;13.05;9.90;;;1.00;99.90;;;;;;2071306;68;22114;-92
2022/12/18 08:17:13;;;;;;;11.57;8.05;;;1.00;99.90;;;;;;1947733;72;22382;-91
2022/12/18 08:20:04;;;;;;;12.73;8.40;;;1.10;99.90;;;;;;1917729;75;21179;-91
2022/12/18 08:22:57;;;;;;;12.15;8.33;;;1.10;99.90;;;;;;1922845;73;21078;-91
2022/12/18 08:25:49;;;;;;;12.40;7.70;;;1.20;99.90;;;;;;1927103;73;21193;-91
2022/12/18 08:31:33;;;;;;;11.30;7.45;;;1.20;99.90;;;;;;1945810;72;22222;-92
2022/12/18 08:34:25;;;;;;;11.93;7.83;;;1.30;99.90;;;;;;1928290;73;21635;-91
2022/12/18 08:40:03;;;;;;;10.25;7.30;;;1.40;99.90;;;;;;1944938;73;22287;-91
2022/12/18 08:46:04;;;;;;;10.20;7.53;;;1.60;99.90;;;;;;1900542;75;21509;-90
2022/12/18 08:48:57;;;;;;;11.78;7.62;;;1.60;99.90;;;;;;1900129;75;21163;-91
2022/12/18 08:51:48;;;;;;;12.63;8.55;;;1.60;99.90;;;;;;1893592;75;21156;-91
2022/12/18 08:54:40;;;;;;;11.65;8.48;;;1.70;99.90;;;;;;1908795;75;21156;-91
2022/12/18 09:00:24;;;;;;;16.32;9.88;;;1.80;99.90;;;;;;1955965;72;22279;-91
2022/12/18 09:03:17;;;;;;;15.78;10.65;;;1.80;99.90;;;;;;1917657;73;21083;-89
2022/12/18 09:06:09;;;;;;;15.98;11.35;;;1.90;99.90;;;;;;1880128;76;21090;-91
2022/12/18 09:09:12;;;;;;;15.72;10.63;;;1.90;99.90;;;;;;1929224;73;21067;-91
2022/12/18 09:12:04;;;;;;;14.60;10.75;;;2.00;99.90;;;;;;1919201;73;21390;-90
2022/12/18 09:14:56;;;;;;;14.38;10.88;;;2.00;99.90;;;;;;1935903;73;21032;-90
2022/12/18 09:17:49;;;;;;;20.60;10.93;;;2.00;99.90;;;;;;1931895;73;21198;-90
2022/12/18 09:20:42;;;;;;;17.02;12.33;;;2.10;99.90;;;;;;1917616;73;21203;-92
2022/12/18 09:26:19;;;;;;;18.27;12.28;;;2.20;99.90;;;;;;1955802;72;22115;-91
2022/12/18 09:29:12;;;;;;;16.30;12.13;;;2.20;99.90;;;;;;1918652;73;21141;-94
2022/12/18 09:32:06;;;;;;;17.52;12.98;;;2.20;99.90;;;;;;1917608;75;21174;-92
2022/12/18 09:34:57;;;;;;;16.93;11.65;;;2.20;99.90;;;;;;1938145;73;21138;-92
2022/12/18 09:37:52;;;;;;;16.52;12.65;;;2.30;99.90;;;;;;1943673;73;21200;-91
2022/12/18 09:40:47;;;;;;;19.95;12.55;;;2.40;99.90;;;;;;1916802;75;21123;-91
2022/12/18 09:43:43;;;;;;;17.77;12.40;;;2.30;99.90;;;;;;1918600;73;21055;-90
2022/12/18 09:46:38;;;;;;;16.00;12.10;;;2.40;99.90;;;;;;1927187;73;21062;-91
2022/12/18 09:52:23;;;;;;;15.53;11.53;;;2.60;99.90;;;;;;1951523;72;22205;-92
2022/12/18 09:58:04;;;;;;;15.93;11.33;;;2.70;99.90;;;;;;1942818;72;22196;-92
2022/12/18 10:00:58;;;;;;;15.98;12.03;;;2.80;99.90;;;;;;1934038;73;21016;-90
2022/12/18 10:03:52;;;;;;;14.68;11.35;;;2.80;99.90;;;;;;1919039;75;21067;-91
2022/12/18 10:09:33;;;;;;;15.50;10.88;;;3.00;99.90;;;;;;1923498;72;22142;-91
2022/12/18 10:12:28;;;;;;;14.87;11.18;;;3.10;99.90;;;;;;1905131;75;21102;-91
2022/12/18 10:15:23;;;;;;;13.20;10.40;;;3.10;99.90;;;;;;1905696;75;21192;-90
2022/12/18 10:21:11;;;;;;;13.20;9.93;;;3.20;99.90;;;;;;1940197;72;22300;-92
2022/12/18 10:24:06;;;;;;;16.80;11.00;;;3.30;99.90;;;;;;1896234;75;21071;-91
2022/12/18 10:27:02;;;;;;;17.98;11.00;;;3.40;99.90;;;;;;1898539;75;21146;-91
2022/12/18 10:30:11;;;;;;;14.07;10.23;;;3.50;99.90;;;;;;1901035;75;21159;-90
2022/12/18 10:33:04;;;;;;;12.55;9.20;;;3.60;99.90;;;;;;1891640;75;21050;-91
2022/12/18 10:35:57;;;;;;;13.88;9.93;;;3.60;99.90;;;;;;1895649;75;21042;-90
2022/12/18 10:38:49;;;;;;;11.20;8.38;;;3.60;99.90;;;;;;1891384;75;21189;-92
2022/12/18 10:42:15;;;;;;;12.88;8.70;;;3.60;99.90;;;;;;1887796;75;21184;-91
2022/12/18 10:45:14;;;;;;;11.12;8.60;;;3.70;99.90;;;;;;1887052;75;21078;-91
2022/12/18 10:50:54;;;;;;;12.00;8.85;;;3.80;99.90;;;;;;1955751;72;22197;-91
2022/12/18 10:56:40;;;;;;;14.43;9.75;;;4.00;99.90;;;;;;1977087;72;22464;-91
2022/12/18 11:20:45;;;;;;;9.33;6.58;;;4.30;99.90;;;;;;2023855;69;22082;-91
2022/12/18 11:23:52;;;;;;;8.93;6.47;;;4.40;99.90;;;;;;1980581;72;21129;-91
2022/12/18 11:26:47;;;;;;;8.93;6.05;;;4.40;99.90;;;;;;2008655;71;21024;-91
2022/12/18 11:29:44;;;;;;;8.53;6.42;;;4.50;99.90;;;;;;1993171;71;21097;-91
2022/12/18 11:49:41;;;;;;;9.15;6.22;;;4.80;99.90;;;;;;1959031;72;22146;-92
2022/12/18 11:52:35;;;;;;;9.23;6.35;;;4.80;99.90;;;;;;1908564;73;21027;-94
2022/12/18 11:55:32;;;;;;;11.60;7.22;;;4.80;99.90;;;;;;1906904;73;21050;-92
2022/12/18 11:58:36;;;;;;;9.28;6.55;;;4.90;99.90;;;;;;1905841;75;21151;-94
2022/12/18 12:01:38;;;;;;;8.10;5.87;;;4.90;99.90;;;;;;1908033;75;21133;-92
2022/12/18 12:04:50;;;;;;;8.33;6.37;;;4.90;99.90;;;;;;1906790;75;21600;-92
2022/12/18 12:07:51;;;;;;;11.05;7.08;;;5.10;99.90;;;;;;1907260;75;21117;-91
2022/12/18 12:16:39;;;;;;;9.55;7.70;;;5.10;99.90;;;;;;2105806;68;22059;-92
2022/12/18 12:19:39;;;;;;;12.30;8.73;;;5.30;99.90;;;;;;2072454;69;21023;-92
2022/12/18 12:25:33;;;;;;;11.57;8.43;;;5.30;99.90;;;;;;1945923;72;22151;-92
2022/12/18 12:28:30;;;;;;;12.20;7.92;;;5.30;99.90;;;;;;1939188;74;21098;-91
2022/12/18 12:31:27;;;;;;;10.70;7.90;;;5.40;99.90;;;;;;1944338;74;21143;-91
2022/12/18 12:34:23;;;;;;;11.45;8.03;;;5.30;99.90;;;;;;1944810;74;21051;-91
2022/12/18 12:37:24;;;;;;;10.63;7.35;;;5.30;99.90;;;;;;1917584;75;21206;-91
2022/12/18 12:40:19;;;;;;;10.63;8.18;;;5.30;99.90;;;;;;1926897;74;21088;-91
2022/12/18 12:43:25;;;;;;;10.30;8.18;;;5.40;99.90;;;;;;1945308;73;21126;-91
2022/12/18 12:46:23;;;;;;;11.03;7.90;;;5.50;99.90;;;;;;1946036;73;21115;-91
2022/12/18 12:49:26;;;;;;;12.40;9.05;;;5.50;99.90;;;;;;1943018;73;21099;-91
2022/12/18 12:52:28;;;;;;;11.35;8.65;;;5.50;99.90;;;;;;1951257;73;21097;-92
2022/12/18 12:55:23;;;;;;;10.20;8.00;;;5.50;99.90;;;;;;1933451;73;21776;-92
2022/12/18 12:58:19;;;;;;;14.98;8.33;;;5.50;99.90;;;;;;1936512;74;21135;-92
2022/12/18 13:01:16;;;;;;;9.63;7.30;;;5.50;99.90;;;;;;1938693;74;21051;-90
2022/12/18 13:04:20;;;;;;;14.18;8.18;;;5.50;99.90;;;;;;1950811;73;21195;-91
2022/12/18 13:14:24;;;;;;;9.13;7.42;;;5.60;99.90;;;;;;1939950;73;21128;-92
2022/12/18 13:17:32;;;;;;;10.65;7.35;;;5.60;99.90;;;;;;1937830;74;21083;-91
2022/12/18 13:25:44;;;;;;;10.28;6.62;;;5.80;99.90;;;;;;2063715;68;22098;-92
2022/12/18 13:28:55;;;;;;;9.45;7.22;;;5.90;99.90;;;;;;2037469;70;21082;-92
2022/12/18 13:32:32;;;;;;;8.65;6.53;;;5.90;99.90;;;;;;2034819;70;21055;-92
2022/12/18 13:35:46;;;;;;;9.08;6.95;;;6.00;99.90;;;;;;1990415;72;21054;-91
2022/12/18 13:38:39;;;;;;;10.98;7.58;;;6.00;99.90;;;;;;1996193;72;21049;-90
2022/12/18 13:41:31;;;;;;;13.48;7.28;;;5.90;99.90;;;;;;1997729;72;21081;-93
2022/12/18 13:44:34;;;;;;;11.12;6.83;;;6.00;99.90;;;;;;2005218;72;21033;-93
2022/12/18 14:39:06;;;;;;;8.15;5.05;;;6.40;99.90;;;;;;2062110;69;22150;-94
2022/12/18 14:42:02;;;;;;;5.90;4.72;;;6.40;99.90;;;;;;2017344;70;21078;-93
2022/12/18 14:44:55;;;;;;;6.62;4.65;;;6.40;99.90;;;;;;2016963;71;21035;-93
2022/12/18 14:47:49;;;;;;;7.20;5.40;;;6.40;99.90;;;;;;2016784;71;21106;-93
2022/12/18 14:50:43;;;;;;;7.50;5.85;;;6.30;99.90;;;;;;2016453;71;21078;-92
2022/12/18 14:53:42;;;;;;;6.55;5.53;;;6.20;99.90;;;;;;2017131;71;21169;-92
2022/12/18 14:56:46;;;;;;;7.72;6.20;;;6.20;99.90;;;;;;2017153;71;21047;-91
2022/12/18 15:02:31;;;;;;;9.58;6.72;;;6.20;99.90;;;;;;1977550;72;22327;-93
2022/12/18 15:05:27;;;;;;;8.73;6.22;;;6.10;99.90;;;;;;1940340;73;21114;-93
2022/12/18 15:34:16;;;;;;;10.30;8.10;;;5.60;99.90;;;;;;2057990;68;27728;-91
2022/12/18 15:37:09;;;;;;;9.75;7.28;;;5.80;99.90;;;;;;2037756;70;21023;-91
2022/12/18 15:40:02;;;;;;;9.00;7.08;;;5.80;99.90;;;;;;2021025;70;21140;-93
2022/12/18 15:46:12;;;;;;;10.30;6.90;;;5.50;99.90;;;;;;2081281;68;22028;-93
2022/12/18 15:49:15;;;;;;;9.73;6.72;;;5.40;99.90;;;;;;2010324;70;21131;-93
2022/12/18 15:52:07;;;;;;;10.82;7.20;;;5.40;99.90;;;;;;2000619;70;21066;-92
2022/12/18 15:58:13;;;;;;;9.70;6.53;;;5.20;99.90;;;;;;2026214;70;21480;-92
2022/12/18 16:01:11;;;;;;;8.88;6.47;;;5.10;99.90;;;;;;2018655;70;21072;-91
2022/12/18 16:04:03;;;;;;;10.63;7.60;;;5.10;99.90;;;;;;2010335;70;21139;-91
2022/12/18 16:09:41;;;;;;;12.30;7.90;;;5.00;99.90;;;;;;1949109;72;22113;-92
2022/12/18 16:12:34;;;;;;;10.32;7.62;;;5.00;99.90;;;;;;1927148;74;21199;-93
2022/12/18 16:18:13;;;;;;;11.12;7.60;;;4.90;99.90;;;;;;1943598;72;22237;-92
2022/12/18 16:37:45;;;;;;;11.68;8.78;;;4.60;99.90;;;;;;1949292;72;22142;-94
2022/12/18 16:41:30;;;;;;;13.40;9.53;;;4.60;99.90;;;;;;1899463;72;21224;-91
2022/12/18 17:39:38;;;;;;;13.00;8.93;;;4.80;99.90;;;;;;1948033;72;22241;-93
2022/12/18 17:42:31;;;;;;;11.33;7.50;;;5.00;99.90;;;;;;1919623;75;21098;-93
2022/12/18 17:45:26;;;;;;;11.83;7.62;;;4.90;99.90;;;;;;1917554;75;21212;-93
2022/12/18 17:48:17;;;;;;;13.70;8.63;;;4.80;99.90;;;;;;1918398;75;21051;-92
2022/12/18 18:54:57;;;;;;;22.15;14.83;;;4.30;99.90;;;;;;1958102;72;22170;-93
2022/12/18 18:57:51;;;;;;;18.07;11.68;;;4.40;99.90;;;;;;1893155;75;21106;-93
2022/12/18 19:00:44;;;;;;;16.87;11.10;;;4.30;99.90;;;;;;1896743;75;21149;-93
2022/12/18 19:03:37;;;;;;;15.43;10.13;;;4.30;99.90;;;;;;1900666;75;21131;-92
2022/12/18 20:26:06;;;;;;;17.07;10.93;;;4.40;99.90;;;;;;1976611;72;22170;-94
2022/12/18 20:28:59;;;;;;;14.15;10.18;;;4.50;99.90;;;;;;1923622;73;21100;-91
2022/12/18 20:31:51;;;;;;;14.07;10.25;;;4.50;99.90;;;;;;1932555;74;21076;-92
2022/12/18 20:34:43;;;;;;;16.45;11.03;;;4.60;99.90;;;;;;1941697;74;21040;-93
2022/12/18 20:37:36;;;;;;;14.80;10.28;;;4.50;99.90;;;;;;1941745;74;21149;-93
2022/12/18 20:40:30;;;;;;;14.15;9.95;;;4.50;99.90;;;;;;1906496;75;21191;-93
2022/12/18 20:43:26;;;;;;;19.35;11.12;;;4.50;99.90;;;;;;1905875;75;21121;-93
2022/12/18 20:46:21;;;;;;;14.43;9.98;;;4.60;99.90;;;;;;1905657;75;21155;-93
2022/12/18 20:49:15;;;;;;;14.35;10.70;;;4.60;99.90;;;;;;1906863;75;21210;-92
2022/12/18 20:52:08;;;;;;;12.53;8.95;;;4.60;99.90;;;;;;1906602;75;21111;-93
2022/12/18 20:55:06;;;;;;;15.08;9.03;;;4.60;99.90;;;;;;1921377;74;21043;-93
2022/12/18 20:58:01;;;;;;;13.58;8.85;;;4.60;99.90;;;;;;1905978;75;21164;-93
2022/12/18 21:01:05;;;;;;;13.35;9.18;;;4.60;99.90;;;;;;1909887;73;21095;-92
2022/12/18 21:04:03;;;;;;;13.18;9.45;;;4.60;99.90;;;;;;1907168;75;21156;-93
2022/12/18 21:14:29;;;;;;;19.27;11.48;;;4.60;99.90;;;;;;2063797;69;21146;-91
2022/12/18 21:17:21;;;;;;;17.12;11.00;;;4.70;99.90;;;;;;2063484;69;21074;-91
2022/12/18 21:20:14;;;;;;;18.62;10.60;;;4.60;99.90;;;;;;2033476;69;21032;-93
2022/12/18 21:23:07;;;;;;;14.25;9.88;;;4.50;99.90;;;;;;1987780;72;21155;-92
2022/12/18 21:26:18;;;;;;;13.28;9.30;;;4.60;99.90;;;;;;2034729;69;21082;-92
2022/12/18 21:29:13;;;;;;;12.60;8.65;;;4.60;99.90;;;;;;2057885;69;21183;-91
2022/12/18 21:36:11;;;;;;;14.43;10.13;;;4.70;99.90;;;;;;2073920;68;20415;-92
2022/12/18 21:39:04;;;;;;;14.55;9.70;;;4.70;99.90;;;;;;2037301;69;21059;-92
2022/12/18 21:45:07;;;;;;;11.60;7.83;;;4.50;99.90;;;;;;1984059;72;21100;-93
2022/12/18 22:04:14;;;;;;;14.98;10.20;;;4.30;99.90;;;;;;1976192;72;22126;-93
2022/12/18 22:07:08;;;;;;;16.02;11.08;;;4.30;99.90;;;;;;1928510;73;21082;-93
2022/12/18 22:10:03;;;;;;;16.55;10.93;;;4.30;99.90;;;;;;1926660;74;21190;-91
2022/12/18 22:12:58;;;;;;;18.07;11.43;;;4.20;99.90;;;;;;1930154;73;21161;-91
2022/12/18 22:33:43;;;;;;;10.82;8.23;;;4.20;99.90;;;;;;1995033;71;22108;-92
2022/12/18 23:03:48;;;;;;;10.98;7.25;;;4.40;99.90;;;;;;1943203;72;22223;-93
2022/12/18 23:06:42;;;;;;;8.78;6.50;;;4.30;99.90;;;;;;1894648;73;21133;-92
2022/12/18 23:09:34;;;;;;;10.18;6.33;;;4.30;99.90;;;;;;1913828;75;21163;-92
2022/12/18 23:12:25;;;;;;;9.75;6.78;;;4.30;99.90;;;;;;1916262;75;21072;-94
2022/12/18 23:15:17;;;;;;;8.98;5.80;;;4.30;99.90;;;;;;1896198;75;21103;-93
2022/12/18 23:19:15;;;;;;;9.43;6.30;;;4.30;99.90;;;;;;1905674;73;21118;-93
2022/12/18 23:22:18;;;;;;;11.80;7.53;;;4.30;99.90;;;;;;1908266;75;21103;-92
2022/12/18 23:25:12;;;;;;;9.18;6.78;;;4.20;99.90;;;;;;1910637;73;21135;-93
2022/12/18 23:28:06;;;;;;;9.33;6.35;;;4.20;99.90;;;;;;1866248;76;21109;-94
2022/12/18 23:34:14;;;;;;;8.70;5.95;;;4.30;99.90;;;;;;2024233;71;22215;-94
2022/12/18 23:54:32;;;;;;;9.15;6.28;;;4.40;99.90;;;;;;1967183;71;22232;-93
2022/12/18 23:57:24;;;;;;;8.90;6.25;;;4.40;99.90;;;;;;1920928;73;21054;-93
